sensor_id;sensor_type;location;lat;lon;timestamp;P1;durP1;ratioP1;P2;durP2;ratioP2
37085;SDS011;23001;45.952;12.676;2024-02-21T00:00:08;11.13;;;9.05;;
37085;SDS011;23001;45.952;12.676;2024-02-21T00:02:36;10.32;;;8.90;;
37085;SDS011;23001;45.952;12.676;2024-02-21T00:05:02;10.23;;;9.10;;
37085;SDS011;23001;45.952;12.676;2024-02-21T00:07:28;10.63;;;9.50;;
37085;SDS011;23001;45.952;12.676;2024-02-21T00:09:53;11.10;;;9.90;;
37085;SDS011;23001;45.952;12.676;2024-02-21T00:12:19;10.90;;;9.60;;
37085;SDS011;23001;45.952;12.676;2024-02-21T00:14:45;11.82;;;9.70;;
37085;SDS011;23001;45.952;12.676;2024-02-21T00:17:11;10.48;;;9.38;;
37085;SDS011;23001;45.952;12.676;2024-02-21T00:19:36;10.82;;;9.63;;
37085;SDS011;23001;45.952;12.676;2024-02-21T00:22:02;10.73;;;9.60;;
37085;SDS011;23001;45.952;12.676;2024-02-21T00:24:27;11.90;;;9.55;;
37085;SDS011;23001;45.952;12.676;2024-02-21T00:26:53;12.45;;;9.55;;
37085;SDS011;23001;45.952;12.676;2024-02-21T00:29:19;11.70;;;9.75;;
37085;SDS011;23001;45.952;12.676;2024-02-21T00:31:45;11.18;;;9.43;;
37085;SDS011;23001;45.952;12.676;2024-02-21T00:34:10;12.00;;;10.15;;
37085;SDS011;23001;45.952;12.676;2024-02-21T00:36:37;10.93;;;9.38;;
37085;SDS011;23001;45.952;12.676;2024-02-21T00:39:03;9.98;;;8.88;;
37085;SDS011;23001;45.952;12.676;2024-02-21T00:41:29;11.07;;;9.98;;
37085;SDS011;23001;45.952;12.676;2024-02-21T00:43:55;17.38;;;9.82;;
37085;SDS011;23001;45.952;12.676;2024-02-21T00:46:20;11.95;;;9.02;;
37085;SDS011;23001;45.952;12.676;2024-02-21T00:48:46;10.75;;;8.63;;
37085;SDS011;23001;45.952;12.676;2024-02-21T00:51:12;8.73;;;7.88;;
37085;SDS011;23001;45.952;12.676;2024-02-21T00:53:38;10.88;;;8.80;;
37085;SDS011;23001;45.952;12.676;2024-02-21T00:56:05;10.02;;;9.02;;
37085;SDS011;23001;45.952;12.676;2024-02-21T00:58:31;9.10;;;8.13;;
37085;SDS011;23001;45.952;12.676;2024-02-21T01:00:56;11.55;;;8.88;;
37085;SDS011;23001;45.952;12.676;2024-02-21T01:03:22;8.65;;;7.75;;
37085;SDS011;23001;45.952;12.676;2024-02-21T01:05:48;9.75;;;8.23;;
37085;SDS011;23001;45.952;12.676;2024-02-21T01:08:13;9.40;;;7.78;;
37085;SDS011;23001;45.952;12.676;2024-02-21T01:10:39;8.32;;;7.15;;
37085;SDS011;23001;45.952;12.676;2024-02-21T01:13:05;9.30;;;7.70;;
37085;SDS011;23001;45.952;12.676;2024-02-21T01:15:32;7.55;;;6.75;;
37085;SDS011;23001;45.952;12.676;2024-02-21T01:17:58;10.73;;;7.30;;
37085;SDS011;23001;45.952;12.676;2024-02-21T01:20:23;8.68;;;7.75;;
37085;SDS011;23001;45.952;12.676;2024-02-21T01:22:49;8.07;;;7.18;;
37085;SDS011;23001;45.952;12.676;2024-02-21T01:25:15;9.55;;;7.07;;
37085;SDS011;23001;45.952;12.676;2024-02-21T01:27:41;10.38;;;6.95;;
37085;SDS011;23001;45.952;12.676;2024-02-21T01:30:07;8.73;;;7.57;;
37085;SDS011;23001;45.952;12.676;2024-02-21T01:32:33;9.82;;;7.72;;
37085;SDS011;23001;45.952;12.676;2024-02-21T01:34:59;9.57;;;6.47;;
37085;SDS011;23001;45.952;12.676;2024-02-21T01:37:24;8.30;;;6.85;;
37085;SDS011;23001;45.952;12.676;2024-02-21T01:39:50;8.57;;;7.07;;
37085;SDS011;23001;45.952;12.676;2024-02-21T01:42:15;8.25;;;6.93;;
37085;SDS011;23001;45.952;12.676;2024-02-21T01:44:41;7.90;;;6.97;;
37085;SDS011;23001;45.952;12.676;2024-02-21T01:47:07;7.57;;;6.50;;
37085;SDS011;23001;45.952;12.676;2024-02-21T01:49:33;8.90;;;7.25;;
37085;SDS011;23001;45.952;12.676;2024-02-21T01:51:59;8.02;;;6.60;;
37085;SDS011;23001;45.952;12.676;2024-02-21T01:54:25;6.88;;;6.18;;
37085;SDS011;23001;45.952;12.676;2024-02-21T01:56:53;10.00;;;7.03;;
37085;SDS011;23001;45.952;12.676;2024-02-21T01:59:19;11.25;;;6.78;;
37085;SDS011;23001;45.952;12.676;2024-02-21T02:01:46;7.05;;;6.35;;
37085;SDS011;23001;45.952;12.676;2024-02-21T02:04:13;7.18;;;6.47;;
37085;SDS011;23001;45.952;12.676;2024-02-21T02:06:39;7.68;;;6.57;;
37085;SDS011;23001;45.952;12.676;2024-02-21T02:09:06;6.93;;;6.22;;
37085;SDS011;23001;45.952;12.676;2024-02-21T02:11:32;7.65;;;6.70;;
37085;SDS011;23001;45.952;12.676;2024-02-21T02:13:58;7.45;;;6.20;;
37085;SDS011;23001;45.952;12.676;2024-02-21T02:16:24;7.63;;;6.00;;
37085;SDS011;23001;45.952;12.676;2024-02-21T02:18:50;7.63;;;6.53;;
37085;SDS011;23001;45.952;12.676;2024-02-21T02:21:32;7.38;;;6.45;;
37085;SDS011;23001;45.952;12.676;2024-02-21T02:24:00;7.40;;;6.22;;
37085;SDS011;23001;45.952;12.676;2024-02-21T02:26:25;9.65;;;6.13;;
37085;SDS011;23001;45.952;12.676;2024-02-21T02:28:52;7.28;;;5.70;;
37085;SDS011;23001;45.952;12.676;2024-02-21T02:31:18;8.00;;;6.00;;
37085;SDS011;23001;45.952;12.676;2024-02-21T02:33:43;7.22;;;5.57;;
37085;SDS011;23001;45.952;12.676;2024-02-21T02:36:09;8.10;;;6.03;;
37085;SDS011;23001;45.952;12.676;2024-02-21T02:38:35;7.10;;;5.72;;
37085;SDS011;23001;45.952;12.676;2024-02-21T02:41:01;8.48;;;6.03;;
37085;SDS011;23001;45.952;12.676;2024-02-21T02:43:26;7.20;;;5.72;;
37085;SDS011;23001;45.952;12.676;2024-02-21T02:45:52;6.38;;;5.72;;
37085;SDS011;23001;45.952;12.676;2024-02-21T02:48:17;5.90;;;5.30;;
37085;SDS011;23001;45.952;12.676;2024-02-21T02:50:44;6.68;;;5.50;;
37085;SDS011;23001;45.952;12.676;2024-02-21T02:53:11;6.60;;;5.63;;
37085;SDS011;23001;45.952;12.676;2024-02-21T02:55:36;5.93;;;5.32;;
37085;SDS011;23001;45.952;12.676;2024-02-21T02:58:02;6.30;;;5.32;;
37085;SDS011;23001;45.952;12.676;2024-02-21T03:00:28;5.55;;;4.40;;
37085;SDS011;23001;45.952;12.676;2024-02-21T03:02:54;5.10;;;4.57;;
37085;SDS011;23001;45.952;12.676;2024-02-21T03:05:20;5.60;;;5.00;;
37085;SDS011;23001;45.952;12.676;2024-02-21T03:07:46;6.95;;;4.47;;
37085;SDS011;23001;45.952;12.676;2024-02-21T03:10:13;5.63;;;4.70;;
37085;SDS011;23001;45.952;12.676;2024-02-21T03:12:41;4.97;;;4.47;;
37085;SDS011;23001;45.952;12.676;2024-02-21T03:15:07;5.28;;;4.68;;
37085;SDS011;23001;45.952;12.676;2024-02-21T03:17:33;4.97;;;4.22;;
37085;SDS011;23001;45.952;12.676;2024-02-21T03:19:59;4.50;;;4.10;;
37085;SDS011;23001;45.952;12.676;2024-02-21T03:25:00;4.82;;;4.32;;
37085;SDS011;23001;45.952;12.676;2024-02-21T03:27:26;5.78;;;5.03;;
37085;SDS011;23001;45.952;12.676;2024-02-21T03:29:52;6.07;;;4.25;;
37085;SDS011;23001;45.952;12.676;2024-02-21T03:32:17;6.03;;;4.45;;
37085;SDS011;23001;45.952;12.676;2024-02-21T03:34:43;4.22;;;3.83;;
37085;SDS011;23001;45.952;12.676;2024-02-21T03:37:09;5.20;;;4.38;;
37085;SDS011;23001;45.952;12.676;2024-02-21T03:39:35;4.15;;;3.75;;
37085;SDS011;23001;45.952;12.676;2024-02-21T03:42:01;4.63;;;3.88;;
37085;SDS011;23001;45.952;12.676;2024-02-21T03:44:30;4.25;;;3.78;;
37085;SDS011;23001;45.952;12.676;2024-02-21T03:46:56;4.78;;;4.05;;
37085;SDS011;23001;45.952;12.676;2024-02-21T03:49:23;4.30;;;3.50;;
37085;SDS011;23001;45.952;12.676;2024-02-21T03:51:48;3.55;;;3.10;;
37085;SDS011;23001;45.952;12.676;2024-02-21T03:54:14;4.78;;;3.55;;
37085;SDS011;23001;45.952;12.676;2024-02-21T03:56:40;4.00;;;3.60;;
37085;SDS011;23001;45.952;12.676;2024-02-21T03:59:06;5.53;;;3.95;;
37085;SDS011;23001;45.952;12.676;2024-02-21T04:01:33;4.53;;;3.90;;
37085;SDS011;23001;45.952;12.676;2024-02-21T04:03:59;3.58;;;3.28;;
37085;SDS011;23001;45.952;12.676;2024-02-21T04:06:25;4.55;;;3.72;;
37085;SDS011;23001;45.952;12.676;2024-02-21T04:08:51;4.05;;;3.45;;
37085;SDS011;23001;45.952;12.676;2024-02-21T04:11:16;4.18;;;3.25;;
37085;SDS011;23001;45.952;12.676;2024-02-21T04:13:43;5.47;;;4.05;;
37085;SDS011;23001;45.952;12.676;2024-02-21T04:16:10;5.82;;;3.72;;
37085;SDS011;23001;45.952;12.676;2024-02-21T04:18:35;3.88;;;3.53;;
37085;SDS011;23001;45.952;12.676;2024-02-21T04:21:01;4.47;;;3.60;;
37085;SDS011;23001;45.952;12.676;2024-02-21T04:23:27;4.07;;;3.47;;
37085;SDS011;23001;45.952;12.676;2024-02-21T04:25:52;4.15;;;3.72;;
37085;SDS011;23001;45.952;12.676;2024-02-21T04:28:18;5.78;;;3.88;;
37085;SDS011;23001;45.952;12.676;2024-02-21T04:30:44;4.00;;;3.55;;
37085;SDS011;23001;45.952;12.676;2024-02-21T04:33:09;4.72;;;3.88;;
37085;SDS011;23001;45.952;12.676;2024-02-21T04:35:36;4.45;;;3.80;;
37085;SDS011;23001;45.952;12.676;2024-02-21T04:38:02;4.13;;;3.72;;
37085;SDS011;23001;45.952;12.676;2024-02-21T04:40:29;4.75;;;3.60;;
37085;SDS011;23001;45.952;12.676;2024-02-21T04:42:55;4.30;;;3.50;;
37085;SDS011;23001;45.952;12.676;2024-02-21T04:45:21;4.88;;;3.28;;
37085;SDS011;23001;45.952;12.676;2024-02-21T04:47:47;3.90;;;3.28;;
37085;SDS011;23001;45.952;12.676;2024-02-21T04:50:13;4.32;;;3.47;;
37085;SDS011;23001;45.952;12.676;2024-02-21T04:52:39;4.30;;;3.75;;
37085;SDS011;23001;45.952;12.676;2024-02-21T04:55:04;5.30;;;4.00;;
37085;SDS011;23001;45.952;12.676;2024-02-21T04:57:31;4.20;;;3.80;;
37085;SDS011;23001;45.952;12.676;2024-02-21T04:59:57;4.13;;;3.72;;
37085;SDS011;23001;45.952;12.676;2024-02-21T05:02:23;5.25;;;3.55;;
37085;SDS011;23001;45.952;12.676;2024-02-21T05:04:49;4.55;;;3.30;;
37085;SDS011;23001;45.952;12.676;2024-02-21T05:07:15;4.05;;;3.65;;
37085;SDS011;23001;45.952;12.676;2024-02-21T05:09:44;5.63;;;3.67;;
37085;SDS011;23001;45.952;12.676;2024-02-21T05:12:11;4.20;;;3.80;;
37085;SDS011;23001;45.952;12.676;2024-02-21T05:14:37;4.85;;;4.35;;
37085;SDS011;23001;45.952;12.676;2024-02-21T05:17:03;4.70;;;4.30;;
37085;SDS011;23001;45.952;12.676;2024-02-21T05:19:29;4.78;;;4.25;;
37085;SDS011;23001;45.952;12.676;2024-02-21T05:21:55;5.88;;;4.47;;
37085;SDS011;23001;45.952;12.676;2024-02-21T05:24:21;5.65;;;4.30;;
37085;SDS011;23001;45.952;12.676;2024-02-21T05:26:46;3.83;;;3.42;;
37085;SDS011;23001;45.952;12.676;2024-02-21T05:29:12;4.25;;;3.85;;
37085;SDS011;23001;45.952;12.676;2024-02-21T05:34:19;6.38;;;4.20;;
37085;SDS011;23001;45.952;12.676;2024-02-21T05:36:45;6.97;;;4.55;;
37085;SDS011;23001;45.952;12.676;2024-02-21T05:39:11;7.07;;;4.30;;
37085;SDS011;23001;45.952;12.676;2024-02-21T05:41:38;4.75;;;4.25;;
37085;SDS011;23001;45.952;12.676;2024-02-21T05:44:03;4.68;;;4.22;;
37085;SDS011;23001;45.952;12.676;2024-02-21T05:46:29;6.25;;;4.68;;
37085;SDS011;23001;45.952;12.676;2024-02-21T05:48:55;5.05;;;4.47;;
37085;SDS011;23001;45.952;12.676;2024-02-21T05:51:20;4.80;;;4.32;;
37085;SDS011;23001;45.952;12.676;2024-02-21T05:53:46;5.35;;;4.45;;
37085;SDS011;23001;45.952;12.676;2024-02-21T05:56:15;5.05;;;4.55;;
37085;SDS011;23001;45.952;12.676;2024-02-21T05:58:42;4.93;;;4.45;;
37085;SDS011;23001;45.952;12.676;2024-02-21T06:01:07;5.90;;;4.72;;
37085;SDS011;23001;45.952;12.676;2024-02-21T06:03:33;5.60;;;4.72;;
37085;SDS011;23001;45.952;12.676;2024-02-21T06:05:59;6.13;;;4.80;;
37085;SDS011;23001;45.952;12.676;2024-02-21T06:08:26;6.10;;;5.55;;
37085;SDS011;23001;45.952;12.676;2024-02-21T06:10:51;5.88;;;4.55;;
37085;SDS011;23001;45.952;12.676;2024-02-21T06:13:19;6.00;;;5.00;;
37085;SDS011;23001;45.952;12.676;2024-02-21T06:15:49;5.38;;;4.88;;
37085;SDS011;23001;45.952;12.676;2024-02-21T06:18:15;8.55;;;4.63;;
37085;SDS011;23001;45.952;12.676;2024-02-21T06:20:44;6.85;;;4.60;;
37085;SDS011;23001;45.952;12.676;2024-02-21T06:23:11;7.03;;;5.65;;
37085;SDS011;23001;45.952;12.676;2024-02-21T06:25:37;9.27;;;5.75;;
37085;SDS011;23001;45.952;12.676;2024-02-21T06:28:04;6.32;;;5.32;;
37085;SDS011;23001;45.952;12.676;2024-02-21T06:30:30;6.20;;;4.18;;
37085;SDS011;23001;45.952;12.676;2024-02-21T06:32:56;6.00;;;5.15;;
37085;SDS011;23001;45.952;12.676;2024-02-21T06:35:22;8.30;;;4.80;;
37085;SDS011;23001;45.952;12.676;2024-02-21T06:37:51;6.57;;;4.90;;
37085;SDS011;23001;45.952;12.676;2024-02-21T06:40:17;7.07;;;4.50;;
37085;SDS011;23001;45.952;12.676;2024-02-21T06:42:46;5.78;;;4.72;;
37085;SDS011;23001;45.952;12.676;2024-02-21T06:45:11;6.28;;;5.65;;
37085;SDS011;23001;45.952;12.676;2024-02-21T06:47:37;7.18;;;5.88;;
37085;SDS011;23001;45.952;12.676;2024-02-21T06:50:03;5.63;;;5.10;;
37085;SDS011;23001;45.952;12.676;2024-02-21T06:52:29;7.53;;;6.72;;
37085;SDS011;23001;45.952;12.676;2024-02-21T06:54:56;8.63;;;6.05;;
37085;SDS011;23001;45.952;12.676;2024-02-21T06:57:21;7.32;;;6.13;;
37085;SDS011;23001;45.952;12.676;2024-02-21T06:59:47;8.77;;;6.95;;
37085;SDS011;23001;45.952;12.676;2024-02-21T07:02:13;7.40;;;6.28;;
37085;SDS011;23001;45.952;12.676;2024-02-21T07:04:39;7.07;;;6.38;;
37085;SDS011;23001;45.952;12.676;2024-02-21T07:07:04;9.02;;;6.80;;
37085;SDS011;23001;45.952;12.676;2024-02-21T07:09:30;8.13;;;5.97;;
37085;SDS011;23001;45.952;12.676;2024-02-21T07:11:57;10.00;;;6.82;;
37085;SDS011;23001;45.952;12.676;2024-02-21T07:14:23;8.93;;;5.63;;
37085;SDS011;23001;45.952;12.676;2024-02-21T07:16:50;6.18;;;5.15;;
37085;SDS011;23001;45.952;12.676;2024-02-21T07:19:15;7.20;;;5.93;;
37085;SDS011;23001;45.952;12.676;2024-02-21T07:21:41;6.60;;;5.50;;
37085;SDS011;23001;45.952;12.676;2024-02-21T07:24:07;6.38;;;5.50;;
37085;SDS011;23001;45.952;12.676;2024-02-21T07:26:33;7.03;;;4.78;;
37085;SDS011;23001;45.952;12.676;2024-02-21T07:28:59;6.78;;;4.95;;
37085;SDS011;23001;45.952;12.676;2024-02-21T07:31:25;6.63;;;4.47;;
37085;SDS011;23001;45.952;12.676;2024-02-21T07:33:51;5.57;;;4.18;;
37085;SDS011;23001;45.952;12.676;2024-02-21T07:36:25;4.93;;;4.22;;
37085;SDS011;23001;45.952;12.676;2024-02-21T07:38:53;7.43;;;5.32;;
37085;SDS011;23001;45.952;12.676;2024-02-21T07:41:19;9.20;;;4.35;;
37085;SDS011;23001;45.952;12.676;2024-02-21T07:43:44;5.40;;;4.07;;
37085;SDS011;23001;45.952;12.676;2024-02-21T07:46:10;5.38;;;3.85;;
37085;SDS011;23001;45.952;12.676;2024-02-21T07:48:36;6.75;;;3.92;;
37085;SDS011;23001;45.952;12.676;2024-02-21T07:51:02;5.22;;;4.28;;
37085;SDS011;23001;45.952;12.676;2024-02-21T07:53:27;7.00;;;4.80;;
37085;SDS011;23001;45.952;12.676;2024-02-21T07:55:53;6.82;;;3.85;;
37085;SDS011;23001;45.952;12.676;2024-02-21T07:58:19;4.47;;;4.07;;
37085;SDS011;23001;45.952;12.676;2024-02-21T08:00:44;4.30;;;3.90;;
37085;SDS011;23001;45.952;12.676;2024-02-21T08:03:10;6.32;;;3.97;;
37085;SDS011;23001;45.952;12.676;2024-02-21T08:05:36;6.72;;;4.25;;
37085;SDS011;23001;45.952;12.676;2024-02-21T08:08:02;10.10;;;4.47;;
37085;SDS011;23001;45.952;12.676;2024-02-21T08:10:29;5.72;;;3.78;;
37085;SDS011;23001;45.952;12.676;2024-02-21T08:12:54;4.32;;;3.22;;
37085;SDS011;23001;45.952;12.676;2024-02-21T08:15:20;3.72;;;3.20;;
37085;SDS011;23001;45.952;12.676;2024-02-21T08:17:49;4.20;;;3.50;;
37085;SDS011;23001;45.952;12.676;2024-02-21T08:20:15;4.13;;;3.65;;
37085;SDS011;23001;45.952;12.676;2024-02-21T08:22:40;6.95;;;4.88;;
37085;SDS011;23001;45.952;12.676;2024-02-21T08:41:59;4.03;;;3.50;;
37085;SDS011;23001;45.952;12.676;2024-02-21T09:31:39;3.40;;;2.88;;
37085;SDS011;23001;45.952;12.676;2024-02-21T10:15:21;2.20;;;2.00;;
37085;SDS011;23001;45.952;12.676;2024-02-21T11:49:36;5.20;;;3.00;;
37085;SDS011;23001;45.952;12.676;2024-02-21T12:15:03;2.58;;;2.28;;
37085;SDS011;23001;45.952;12.676;2024-02-21T12:28:28;4.78;;;3.00;;
37085;SDS011;23001;45.952;12.676;2024-02-21T12:31:15;5.60;;;3.05;;
37085;SDS011;23001;45.952;12.676;2024-02-21T12:44:37;4.95;;;3.20;;
37085;SDS011;23001;45.952;12.676;2024-02-21T13:45:35;7.18;;;5.07;;
37085;SDS011;23001;45.952;12.676;2024-02-21T14:05:09;8.15;;;5.43;;
37085;SDS011;23001;45.952;12.676;2024-02-21T14:07:42;7.13;;;6.03;;
37085;SDS011;23001;45.952;12.676;2024-02-21T14:10:08;7.65;;;6.05;;
37085;SDS011;23001;45.952;12.676;2024-02-21T14:12:42;9.48;;;6.93;;
37085;SDS011;23001;45.952;12.676;2024-02-21T14:15:17;7.32;;;5.90;;
37085;SDS011;23001;45.952;12.676;2024-02-21T14:17:50;7.43;;;5.70;;
37085;SDS011;23001;45.952;12.676;2024-02-21T14:20:15;9.90;;;6.05;;
37085;SDS011;23001;45.952;12.676;2024-02-21T14:22:41;9.65;;;6.63;;
37085;SDS011;23001;45.952;12.676;2024-02-21T14:25:07;6.53;;;5.85;;
37085;SDS011;23001;45.952;12.676;2024-02-21T14:27:33;7.97;;;6.60;;
37085;SDS011;23001;45.952;12.676;2024-02-21T14:30:01;8.35;;;6.38;;
37085;SDS011;23001;45.952;12.676;2024-02-21T14:32:54;7.63;;;6.35;;
37085;SDS011;23001;45.952;12.676;2024-02-21T14:35:28;8.10;;;6.40;;
37085;SDS011;23001;45.952;12.676;2024-02-21T14:37:57;8.50;;;6.82;;
37085;SDS011;23001;45.952;12.676;2024-02-21T14:40:29;10.05;;;6.50;;
37085;SDS011;23001;45.952;12.676;2024-02-21T14:42:55;8.23;;;7.05;;
37085;SDS011;23001;45.952;12.676;2024-02-21T15:19:45;9.02;;;7.88;;
37085;SDS011;23001;45.952;12.676;2024-02-21T15:29:23;9.77;;;8.63;;
37085;SDS011;23001;45.952;12.676;2024-02-21T15:35:13;11.93;;;8.38;;
37085;SDS011;23001;45.952;12.676;2024-02-21T15:37:39;10.85;;;9.60;;
37085;SDS011;23001;45.952;12.676;2024-02-21T15:40:10;9.70;;;8.60;;
37085;SDS011;23001;45.952;12.676;2024-02-21T15:43:22;10.45;;;8.35;;
37085;SDS011;23001;45.952;12.676;2024-02-21T15:45:52;13.38;;;9.70;;
37085;SDS011;23001;45.952;12.676;2024-02-21T15:48:18;15.15;;;9.70;;
37085;SDS011;23001;45.952;12.676;2024-02-21T15:53:31;25.70;;;20.08;;
37085;SDS011;23001;45.952;12.676;2024-02-21T15:55:57;16.13;;;13.02;;
37085;SDS011;23001;45.952;12.676;2024-02-21T15:59:18;12.80;;;11.15;;
37085;SDS011;23001;45.952;12.676;2024-02-21T16:12:10;15.68;;;11.32;;
37085;SDS011;23001;45.952;12.676;2024-02-21T16:14:39;12.10;;;10.52;;
37085;SDS011;23001;45.952;12.676;2024-02-21T16:27:06;14.45;;;12.07;;
37085;SDS011;23001;45.952;12.676;2024-02-21T16:29:37;15.38;;;11.77;;
37085;SDS011;23001;45.952;12.676;2024-02-21T16:32:06;14.50;;;12.88;;
37085;SDS011;23001;45.952;12.676;2024-02-21T16:35:01;16.63;;;12.73;;
37085;SDS011;23001;45.952;12.676;2024-02-21T16:40:44;20.15;;;15.73;;
37085;SDS011;23001;45.952;12.676;2024-02-21T16:43:42;19.15;;;16.30;;
37085;SDS011;23001;45.952;12.676;2024-02-21T16:46:08;19.45;;;13.30;;
37085;SDS011;23001;45.952;12.676;2024-02-21T16:48:35;16.27;;;12.88;;
37085;SDS011;23001;45.952;12.676;2024-02-21T16:51:32;14.38;;;10.30;;
37085;SDS011;23001;45.952;12.676;2024-02-21T17:04:41;9.93;;;7.90;;
37085;SDS011;23001;45.952;12.676;2024-02-21T17:07:08;10.80;;;7.38;;
37085;SDS011;23001;45.952;12.676;2024-02-21T17:09:34;10.35;;;8.52;;
37085;SDS011;23001;45.952;12.676;2024-02-21T17:12:01;10.05;;;8.70;;
37085;SDS011;23001;45.952;12.676;2024-02-21T17:14:32;11.73;;;8.98;;
37085;SDS011;23001;45.952;12.676;2024-02-21T17:16:58;10.70;;;7.85;;
37085;SDS011;23001;45.952;12.676;2024-02-21T17:19:24;9.05;;;7.85;;
37085;SDS011;23001;45.952;12.676;2024-02-21T17:21:49;10.75;;;8.13;;
37085;SDS011;23001;45.952;12.676;2024-02-21T17:24:15;11.82;;;8.10;;
37085;SDS011;23001;45.952;12.676;2024-02-21T17:26:41;11.63;;;7.75;;
37085;SDS011;23001;45.952;12.676;2024-02-21T17:29:07;8.75;;;7.25;;
37085;SDS011;23001;45.952;12.676;2024-02-21T17:31:33;10.73;;;8.48;;
37085;SDS011;23001;45.952;12.676;2024-02-21T17:33:59;11.63;;;8.63;;
37085;SDS011;23001;45.952;12.676;2024-02-21T17:36:25;10.25;;;8.52;;
37085;SDS011;23001;45.952;12.676;2024-02-21T17:38:51;10.85;;;8.35;;
37085;SDS011;23001;45.952;12.676;2024-02-21T17:41:17;11.40;;;8.75;;
37085;SDS011;23001;45.952;12.676;2024-02-21T17:43:43;13.32;;;9.30;;
37085;SDS011;23001;45.952;12.676;2024-02-21T17:46:09;14.05;;;8.65;;
37085;SDS011;23001;45.952;12.676;2024-02-21T17:48:36;12.82;;;10.93;;
37085;SDS011;23001;45.952;12.676;2024-02-21T17:51:04;13.60;;;10.38;;
37085;SDS011;23001;45.952;12.676;2024-02-21T17:53:32;13.93;;;10.65;;
37085;SDS011;23001;45.952;12.676;2024-02-21T17:56:00;14.60;;;10.43;;
37085;SDS011;23001;45.952;12.676;2024-02-21T17:58:30;14.55;;;11.85;;
37085;SDS011;23001;45.952;12.676;2024-02-21T18:00:58;14.70;;;11.57;;
37085;SDS011;23001;45.952;12.676;2024-02-21T18:03:26;14.07;;;11.50;;
37085;SDS011;23001;45.952;12.676;2024-02-21T18:06:00;15.23;;;12.50;;
37085;SDS011;23001;45.952;12.676;2024-02-21T18:08:35;13.70;;;11.45;;
37085;SDS011;23001;45.952;12.676;2024-02-21T18:11:09;15.93;;;12.35;;
37085;SDS011;23001;45.952;12.676;2024-02-21T18:13:36;12.95;;;11.30;;
37085;SDS011;23001;45.952;12.676;2024-02-21T18:16:05;16.60;;;13.30;;
37085;SDS011;23001;45.952;12.676;2024-02-21T18:18:33;16.48;;;12.07;;
37085;SDS011;23001;45.952;12.676;2024-02-21T18:20:59;18.63;;;13.13;;
37085;SDS011;23001;45.952;12.676;2024-02-21T18:23:25;18.67;;;12.90;;
37085;SDS011;23001;45.952;12.676;2024-02-21T18:25:54;20.33;;;12.98;;
37085;SDS011;23001;45.952;12.676;2024-02-21T18:28:20;18.83;;;13.93;;
37085;SDS011;23001;45.952;12.676;2024-02-21T18:30:46;24.83;;;17.88;;
37085;SDS011;23001;45.952;12.676;2024-02-21T18:33:11;22.70;;;17.67;;
37085;SDS011;23001;45.952;12.676;2024-02-21T18:35:37;37.13;;;29.92;;
37085;SDS011;23001;45.952;12.676;2024-02-21T18:38:04;24.88;;;19.88;;
37085;SDS011;23001;45.952;12.676;2024-02-21T18:40:29;23.20;;;16.95;;
37085;SDS011;23001;45.952;12.676;2024-02-21T18:42:55;23.45;;;18.13;;
37085;SDS011;23001;45.952;12.676;2024-02-21T18:45:24;23.73;;;19.00;;
37085;SDS011;23001;45.952;12.676;2024-02-21T18:47:50;20.65;;;18.35;;
37085;SDS011;23001;45.952;12.676;2024-02-21T18:50:16;22.52;;;18.23;;
37085;SDS011;23001;45.952;12.676;2024-02-21T18:52:42;19.95;;;16.77;;
37085;SDS011;23001;45.952;12.676;2024-02-21T18:55:12;21.88;;;17.70;;
37085;SDS011;23001;45.952;12.676;2024-02-21T18:57:50;18.95;;;16.90;;
37085;SDS011;23001;45.952;12.676;2024-02-21T19:00:19;20.20;;;15.80;;
37085;SDS011;23001;45.952;12.676;2024-02-21T19:02:48;20.42;;;16.02;;
37085;SDS011;23001;45.952;12.676;2024-02-21T19:05:17;18.20;;;14.65;;
37085;SDS011;23001;45.952;12.676;2024-02-21T19:07:50;21.08;;;15.63;;
37085;SDS011;23001;45.952;12.676;2024-02-21T19:10:23;19.35;;;15.95;;
37085;SDS011;23001;45.952;12.676;2024-02-21T19:13:09;20.55;;;16.70;;
37085;SDS011;23001;45.952;12.676;2024-02-21T19:15:36;25.13;;;16.90;;
37085;SDS011;23001;45.952;12.676;2024-02-21T19:18:07;21.00;;;17.92;;
37085;SDS011;23001;45.952;12.676;2024-02-21T19:20:41;26.83;;;17.38;;
37085;SDS011;23001;45.952;12.676;2024-02-21T19:23:12;22.33;;;18.30;;
37085;SDS011;23001;45.952;12.676;2024-02-21T19:25:50;26.15;;;18.27;;
37085;SDS011;23001;45.952;12.676;2024-02-21T19:28:16;26.05;;;20.10;;
37085;SDS011;23001;45.952;12.676;2024-02-21T19:30:44;22.13;;;18.40;;
37085;SDS011;23001;45.952;12.676;2024-02-21T19:46:27;23.05;;;17.75;;
37085;SDS011;23001;45.952;12.676;2024-02-21T19:52:40;20.30;;;16.77;;
37085;SDS011;23001;45.952;12.676;2024-02-21T19:57:44;22.55;;;18.15;;
37085;SDS011;23001;45.952;12.676;2024-02-21T20:00:52;19.13;;;16.85;;
37085;SDS011;23001;45.952;12.676;2024-02-21T20:04:03;22.48;;;18.40;;
37085;SDS011;23001;45.952;12.676;2024-02-21T20:22:57;20.38;;;17.50;;
37085;SDS011;23001;45.952;12.676;2024-02-21T20:29:35;18.02;;;16.02;;
37085;SDS011;23001;45.952;12.676;2024-02-21T20:32:27;16.80;;;14.93;;
37085;SDS011;23001;45.952;12.676;2024-02-21T20:35:23;18.90;;;16.85;;
37085;SDS011;23001;45.952;12.676;2024-02-21T20:48:45;18.55;;;16.52;;
37085;SDS011;23001;45.952;12.676;2024-02-21T20:58:46;21.23;;;18.50;;
37085;SDS011;23001;45.952;12.676;2024-02-21T21:04:46;23.55;;;19.55;;
37085;SDS011;23001;45.952;12.676;2024-02-21T21:08:19;23.25;;;18.50;;
37085;SDS011;23001;45.952;12.676;2024-02-21T21:18:55;22.45;;;18.95;;
37085;SDS011;23001;45.952;12.676;2024-02-21T21:21:45;25.17;;;20.50;;
37085;SDS011;23001;45.952;12.676;2024-02-21T21:24:43;23.73;;;19.13;;
37085;SDS011;23001;45.952;12.676;2024-02-21T21:27:12;24.58;;;19.48;;
37085;SDS011;23001;45.952;12.676;2024-02-21T21:29:41;24.48;;;19.15;;
37085;SDS011;23001;45.952;12.676;2024-02-21T21:32:07;22.65;;;20.20;;
37085;SDS011;23001;45.952;12.676;2024-02-21T21:34:34;24.63;;;20.00;;
37085;SDS011;23001;45.952;12.676;2024-02-21T21:37:13;24.40;;;20.65;;
37085;SDS011;23001;45.952;12.676;2024-02-21T21:39:47;23.00;;;20.50;;
37085;SDS011;23001;45.952;12.676;2024-02-21T21:42:22;25.15;;;21.17;;
37085;SDS011;23001;45.952;12.676;2024-02-21T21:44:48;24.55;;;21.95;;
37085;SDS011;23001;45.952;12.676;2024-02-21T21:47:17;24.58;;;21.48;;
37085;SDS011;23001;45.952;12.676;2024-02-21T21:49:53;26.77;;;21.35;;
37085;SDS011;23001;45.952;12.676;2024-02-21T21:55:36;26.35;;;22.92;;
37085;SDS011;23001;45.952;12.676;2024-02-21T21:58:14;25.10;;;22.00;;
37085;SDS011;23001;45.952;12.676;2024-02-21T22:00:44;28.00;;;23.38;;
37085;SDS011;23001;45.952;12.676;2024-02-21T22:03:15;32.13;;;23.70;;
37085;SDS011;23001;45.952;12.676;2024-02-21T22:05:51;25.95;;;22.88;;
37085;SDS011;23001;45.952;12.676;2024-02-21T22:08:16;28.65;;;25.35;;
37085;SDS011;23001;45.952;12.676;2024-02-21T22:10:47;31.20;;;25.40;;
37085;SDS011;23001;45.952;12.676;2024-02-21T22:13:16;28.20;;;23.55;;
37085;SDS011;23001;45.952;12.676;2024-02-21T22:15:51;32.33;;;26.02;;
37085;SDS011;23001;45.952;12.676;2024-02-21T22:18:17;27.98;;;24.13;;
37085;SDS011;23001;45.952;12.676;2024-02-21T22:20:43;30.98;;;25.45;;
37085;SDS011;23001;45.952;12.676;2024-02-21T22:23:09;29.17;;;25.50;;
37085;SDS011;23001;45.952;12.676;2024-02-21T22:25:45;28.42;;;24.75;;
37085;SDS011;23001;45.952;12.676;2024-02-21T22:28:12;27.98;;;24.45;;
37085;SDS011;23001;45.952;12.676;2024-02-21T22:30:45;28.65;;;24.90;;